Time;durP1;ratioP1;P1;durP2;ratioP2;P2;SDS_P1;SDS_P2;PMS_P1;PMS_P2;Temp;Humidity;BMP_temperature;BMP_pressure;BME280_temperature;BME280_humidity;BME280_pressure;Samples;Min_cycle;Max_cycle;Signal;HPM_P1;HPM_P2
2022/05/08 00:00:22;;;;;;;1.40;0.50;;;14.20;95.60;;;;;;5064895;28;20460;-61
2022/05/08 00:02:55;;;;;;;0.80;0.73;;;14.00;95.10;;;;;;5056065;28;20460;-61
2022/05/08 00:05:28;;;;;;;0.60;0.60;;;14.00;96.00;;;;;;5062716;28;20761;-62
2022/05/08 00:08:03;;;;;;;0.97;0.53;;;14.00;95.40;;;;;;5060811;28;20466;-61
2022/05/08 00:10:34;;;;;;;0.80;0.60;;;13.90;96.70;;;;;;5063839;28;20495;-61
2022/05/08 00:13:05;;;;;;;0.80;0.70;;;13.80;97.40;;;;;;5063077;28;20471;-61
2022/05/08 00:15:36;;;;;;;1.60;1.10;;;13.90;97.50;;;;;;5065036;28;20480;-62
2022/05/08 00:18:08;;;;;;;0.63;0.60;;;13.70;97.20;;;;;;5064803;28;20527;-62
2022/05/08 00:20:41;;;;;;;1.37;0.80;;;13.70;98.10;;;;;;5063312;28;20500;-61
2022/05/08 00:23:11;;;;;;;0.93;0.70;;;13.70;97.60;;;;;;5062067;28;20456;-62
2022/05/08 00:25:42;;;;;;;0.60;0.60;;;13.80;98.00;;;;;;5054637;28;20474;-62
2022/05/08 00:28:13;;;;;;;1.50;0.60;;;14.00;95.70;;;;;;5060118;28;20509;-64
2022/05/08 00:30:44;;;;;;;1.07;0.50;;;13.90;97.40;;;;;;5053182;28;20495;-64
2022/05/08 00:33:14;;;;;;;0.60;0.60;;;13.80;96.70;;;;;;5063484;28;20846;-62
2022/05/08 00:35:48;;;;;;;1.53;1.03;;;13.70;96.90;;;;;;5064536;28;20506;-63
2022/05/08 00:38:19;;;;;;;0.50;0.50;;;13.80;98.10;;;;;;5063740;28;20460;-63
2022/05/08 00:40:49;;;;;;;1.17;0.30;;;14.00;97.60;;;;;;5064694;28;20460;-63
2022/05/08 00:43:32;;;;;;;0.43;0.43;;;14.10;96.70;;;;;;5057395;28;20498;-63
2022/05/08 00:46:05;;;;;;;0.93;0.60;;;14.30;97.20;;;;;;5063753;28;20483;-63
2022/05/08 00:48:36;;;;;;;2.23;0.90;;;14.20;96.50;;;;;;5065372;28;20468;-62
2022/05/08 00:51:10;;;;;;;0.60;0.40;;;14.00;97.20;;;;;;5064475;28;20480;-63
2022/05/08 00:53:42;;;;;;;0.60;0.33;;;14.00;96.70;;;;;;5057583;28;20478;-63
2022/05/08 00:56:15;;;;;;;0.90;0.53;;;13.70;96.20;;;;;;5062742;28;20555;-63
2022/05/08 00:58:48;;;;;;;1.13;0.60;;;13.60;97.30;;;;;;5066113;28;20498;-63
2022/05/08 01:01:19;;;;;;;0.93;0.60;;;13.60;97.20;;;;;;5063649;28;20452;-63
2022/05/08 01:03:50;;;;;;;1.03;0.70;;;13.80;96.90;;;;;;5064129;28;20448;-63
2022/05/08 01:06:23;;;;;;;5.67;4.03;;;13.60;96.30;;;;;;5063746;28;20482;-63
2022/05/08 01:08:54;;;;;;;4.73;2.67;;;13.70;97.50;;;;;;5062530;28;20935;-62
2022/05/08 01:11:25;;;;;;;3.63;3.17;;;13.40;96.80;;;;;;5049717;28;20500;-62
2022/05/08 01:13:56;;;;;;;3.83;2.33;;;13.50;97.40;;;;;;5063257;28;20463;-62
2022/05/08 01:16:27;;;;;;;4.03;3.10;;;13.40;96.90;;;;;;5061819;28;20492;-64
2022/05/08 01:18:59;;;;;;;59.53;38.87;;;13.30;97.00;;;;;;5063280;28;20482;-65
2022/05/08 01:21:37;;;;;;;6.03;5.43;;;13.20;98.10;;;;;;5062731;28;21351;-64
2022/05/08 01:24:09;;;;;;;1.60;0.60;;;13.10;98.10;;;;;;5062149;28;20460;-64
2022/05/08 01:26:40;;;;;;;1.80;0.83;;;13.10;98.00;;;;;;5062786;28;20574;-63
2022/05/08 01:29:11;;;;;;;2.77;1.47;;;13.00;98.80;;;;;;5060622;28;20471;-64
2022/05/08 01:31:41;;;;;;;4.50;2.67;;;13.10;98.30;;;;;;5062865;28;20496;-63
2022/05/08 01:34:12;;;;;;;6.40;5.03;;;12.90;98.50;;;;;;5061416;28;20471;-63
2022/05/08 01:36:44;;;;;;;18.17;11.47;;;12.60;98.50;;;;;;5062529;28;20441;-64
2022/05/08 01:39:15;;;;;;;1.10;0.80;;;12.40;99.10;;;;;;5059969;28;20452;-63
2022/05/08 01:41:46;;;;;;;1.13;0.67;;;12.50;98.10;;;;;;5061883;28;20597;-64
2022/05/08 01:44:24;;;;;;;1.30;0.90;;;12.40;99.40;;;;;;5062880;28;20461;-64
2022/05/08 01:48:21;;;;;;;1.13;0.80;;;12.20;98.60;;;;;;5062532;28;20456;-64
2022/05/08 01:49:44;;;;;;;1.00;0.90;;;12.10;99.00;;;;;;5051091;28;21149;-63
2022/05/08 01:52:16;;;;;;;2.17;0.90;;;12.00;99.50;;;;;;5058820;28;20940;-64
2022/05/08 01:54:47;;;;;;;2.33;0.90;;;12.10;99.90;;;;;;5062091;28;20456;-64
2022/05/08 01:57:18;;;;;;;0.90;0.70;;;12.00;99.90;;;;;;5064280;28;20475;-62
2022/05/08 01:59:49;;;;;;;0.93;0.80;;;12.00;99.50;;;;;;5061077;28;20464;-62
2022/05/08 02:02:20;;;;;;;1.23;1.13;;;12.00;99.90;;;;;;5062058;28;20479;-63
2022/05/08 02:04:51;;;;;;;1.97;1.00;;;12.00;99.90;;;;;;5059859;28;20492;-63
2022/05/08 02:07:23;;;;;;;3.17;0.93;;;11.80;99.90;;;;;;5062847;28;20444;-63
2022/05/08 02:09:54;;;;;;;0.80;0.70;;;11.90;99.90;;;;;;5060594;28;20941;-63
2022/05/08 02:12:25;;;;;;;0.80;0.80;;;11.80;99.90;;;;;;5062573;28;20489;-61
2022/05/08 02:14:56;;;;;;;1.83;0.60;;;11.80;99.90;;;;;;5061147;28;20487;-62
2022/05/08 02:17:27;;;;;;;1.30;0.60;;;11.80;99.90;;;;;;5047293;28;20453;-63
2022/05/08 02:19:58;;;;;;;0.90;0.43;;;11.80;99.90;;;;;;5061527;28;20460;-63
2022/05/08 02:22:31;;;;;;;0.67;0.67;;;11.80;99.90;;;;;;5049394;28;20519;-63
2022/05/08 02:25:01;;;;;;;0.83;0.60;;;11.60;99.60;;;;;;5057378;28;20475;-62
2022/05/08 02:27:37;;;;;;;0.70;0.60;;;11.50;99.90;;;;;;5052611;28;20464;-63
2022/05/08 02:30:10;;;;;;;1.00;0.80;;;11.60;99.90;;;;;;5055652;28;20579;-63
2022/05/08 02:32:41;;;;;;;1.23;0.60;;;11.60;99.90;;;;;;5055633;28;20498;-63
2022/05/08 02:35:12;;;;;;;1.03;0.50;;;11.60;99.90;;;;;;5064337;28;20463;-63
2022/05/08 02:37:45;;;;;;;2.63;0.50;;;11.40;99.80;;;;;;5060975;28;20445;-64
2022/05/08 02:40:16;;;;;;;1.10;0.70;;;11.10;99.60;;;;;;5060902;28;20470;-63
2022/05/08 02:42:47;;;;;;;0.57;0.53;;;10.90;99.90;;;;;;5053703;28;20912;-63
2022/05/08 02:45:18;;;;;;;0.60;0.37;;;10.80;99.90;;;;;;5061085;28;20638;-64
2022/05/08 02:47:49;;;;;;;0.67;0.67;;;10.70;99.90;;;;;;5059196;28;20468;-63
2022/05/08 02:50:21;;;;;;;0.50;0.50;;;10.50;99.90;;;;;;5062027;28;20460;-63
2022/05/08 02:52:53;;;;;;;1.63;0.63;;;10.60;99.90;;;;;;5061175;28;20999;-63
2022/05/08 03:00:59;;;;;;;0.70;0.60;;;10.40;99.90;;;;;;5061830;28;20463;-63
2022/05/08 03:03:30;;;;;;;0.70;0.60;;;10.30;99.90;;;;;;5059755;28;20464;-63
2022/05/08 03:06:01;;;;;;;0.93;0.50;;;10.20;99.90;;;;;;5058038;28;20474;-62
2022/05/08 03:08:33;;;;;;;0.80;0.60;;;10.10;99.90;;;;;;5060821;28;20209;-63
2022/05/08 03:14:06;;;;;;;1.77;0.57;;;10.00;99.90;;;;;;5038328;28;20460;-63
2022/05/08 03:16:37;;;;;;;3.33;0.60;;;9.90;99.90;;;;;;5038877;28;20518;-62
2022/05/08 03:19:08;;;;;;;1.77;0.67;;;9.90;99.90;;;;;;5037208;28;20214;-64
2022/05/08 03:21:40;;;;;;;1.30;0.85;;;9.90;99.90;;;;;;5025109;28;20457;-63
2022/05/08 03:24:13;;;;;;;0.60;0.40;;;9.90;99.90;;;;;;5037467;28;20226;-63
2022/05/08 03:26:44;;;;;;;1.90;1.40;;;9.90;99.90;;;;;;5038827;28;20465;-63
2022/05/08 03:29:14;;;;;;;0.73;0.40;;;9.80;99.90;;;;;;5038386;28;20509;-64
2022/05/08 03:31:46;;;;;;;1.13;0.90;;;9.70;99.90;;;;;;5034550;28;20508;-63
2022/05/08 03:34:17;;;;;;;0.70;0.70;;;9.80;99.90;;;;;;5038168;28;20449;-65
2022/05/08 03:36:47;;;;;;;0.77;0.77;;;9.80;99.90;;;;;;5039368;28;20468;-63
2022/05/08 03:39:20;;;;;;;1.40;0.80;;;9.70;99.90;;;;;;5035791;28;20453;-64
2022/05/08 03:41:51;;;;;;;2.70;0.90;;;9.70;99.90;;;;;;5038234;28;20337;-63
2022/05/08 03:44:21;;;;;;;2.05;1.15;;;9.50;99.90;;;;;;5041293;28;20456;-63
2022/05/08 03:46:52;;;;;;;1.58;0.73;;;9.60;99.90;;;;;;5061737;28;20202;-63
2022/05/08 03:49:23;;;;;;;0.80;0.77;;;9.60;99.90;;;;;;5060079;28;20717;-63
2022/05/08 03:51:54;;;;;;;1.20;0.82;;;9.50;99.90;;;;;;5055851;28;20221;-64
2022/05/08 03:54:26;;;;;;;0.73;0.73;;;9.50;99.90;;;;;;5057966;28;20205;-63
2022/05/08 03:56:57;;;;;;;2.20;0.93;;;9.50;99.90;;;;;;5057024;28;20668;-63
2022/05/08 03:59:28;;;;;;;1.15;0.60;;;9.40;99.90;;;;;;5055279;28;20529;-63
2022/05/08 04:01:58;;;;;;;2.95;1.00;;;9.30;99.90;;;;;;5060443;28;20230;-63
2022/05/08 04:04:29;;;;;;;0.85;0.85;;;9.30;99.90;;;;;;5060328;28;20206;-63
2022/05/08 04:07:00;;;;;;;1.27;1.17;;;9.20;99.90;;;;;;5058800;28;20202;-64
2022/05/08 04:09:32;;;;;;;0.70;0.70;;;9.20;99.90;;;;;;5058884;28;20479;-65
2022/05/08 04:12:03;;;;;;;1.45;0.90;;;9.30;99.90;;;;;;5060109;28;20218;-65
2022/05/08 04:14:34;;;;;;;0.82;0.80;;;9.30;99.90;;;;;;5060852;28;20213;-64
2022/05/08 04:17:04;;;;;;;1.08;0.70;;;9.40;99.90;;;;;;5061290;28;20249;-64
2022/05/08 04:19:35;;;;;;;0.70;0.70;;;9.30;99.90;;;;;;5059618;28;20740;-64
2022/05/08 04:24:58;;;;;;;1.15;1.00;;;9.40;99.90;;;;;;5055937;28;20206;-65
2022/05/08 04:27:29;;;;;;;0.80;0.80;;;9.50;99.90;;;;;;5056457;28;20193;-63
2022/05/08 04:30:00;;;;;;;3.83;1.00;;;9.40;99.90;;;;;;5060618;28;20205;-64
2022/05/08 04:32:32;;;;;;;1.27;0.73;;;9.30;99.90;;;;;;5062146;28;20502;-63
2022/05/08 04:35:03;;;;;;;2.50;1.25;;;9.30;99.90;;;;;;5061227;28;20700;-65
2022/05/08 04:37:35;;;;;;;1.40;1.20;;;9.30;99.90;;;;;;5060127;28;20666;-65
2022/05/08 04:40:09;;;;;;;1.52;1.40;;;9.40;99.90;;;;;;5063135;28;20210;-64
2022/05/08 04:42:40;;;;;;;1.60;1.48;;;9.30;99.90;;;;;;5054139;28;20210;-64
2022/05/08 04:45:12;;;;;;;1.70;1.30;;;9.30;99.90;;;;;;5062566;28;20277;-64
2022/05/08 04:47:43;;;;;;;2.33;1.67;;;9.20;99.90;;;;;;5063877;28;20209;-64
2022/05/08 04:50:13;;;;;;;2.05;1.08;;;9.30;99.90;;;;;;5063982;28;20198;-64
2022/05/08 04:52:45;;;;;;;1.48;1.38;;;9.30;99.90;;;;;;5064050;28;20237;-64
2022/05/08 04:55:18;;;;;;;1.27;1.10;;;9.20;99.90;;;;;;5060187;28;20221;-64
2022/05/08 04:57:49;;;;;;;1.20;1.10;;;9.30;99.90;;;;;;5060553;28;20461;-65
2022/05/08 05:00:21;;;;;;;1.13;1.07;;;9.20;99.90;;;;;;5062925;28;20538;-64
2022/05/08 05:02:52;;;;;;;3.90;1.42;;;9.20;99.90;;;;;;5062931;28;20460;-65
2022/05/08 05:05:24;;;;;;;2.20;1.33;;;9.20;99.90;;;;;;5056931;28;20301;-64
2022/05/08 05:07:55;;;;;;;1.25;1.20;;;9.20;99.90;;;;;;5062684;28;21307;-63
2022/05/08 05:10:28;;;;;;;2.75;1.80;;;9.20;99.90;;;;;;5063518;28;20233;-63
2022/05/08 05:12:59;;;;;;;1.70;1.20;;;9.20;99.90;;;;;;5064545;28;20240;-64
2022/05/08 05:15:30;;;;;;;1.20;1.15;;;9.30;99.90;;;;;;5064490;28;20230;-64
2022/05/08 05:18:02;;;;;;;4.93;1.60;;;9.30;99.90;;;;;;5064535;28;20226;-63
2022/05/08 05:20:33;;;;;;;2.47;1.85;;;9.30;99.90;;;;;;5063006;28;20648;-62
2022/05/08 05:23:06;;;;;;;1.60;1.50;;;9.10;99.90;;;;;;5063223;28;20208;-63
2022/05/08 05:25:39;;;;;;;1.75;1.30;;;9.10;99.90;;;;;;5061185;28;20214;-63
2022/05/08 05:28:10;;;;;;;1.67;1.35;;;9.10;99.90;;;;;;5058769;28;20202;-62
2022/05/08 05:30:41;;;;;;;1.63;1.45;;;9.10;99.90;;;;;;5063521;28;20206;-63
2022/05/08 05:33:15;;;;;;;1.85;1.33;;;9.00;99.90;;;;;;5061217;28;20226;-64
2022/05/08 05:35:46;;;;;;;1.67;1.55;;;9.00;99.90;;;;;;5061051;28;20205;-63
2022/05/08 05:38:17;;;;;;;1.77;1.40;;;9.00;99.90;;;;;;5062488;28;20204;-64
2022/05/08 05:40:49;;;;;;;3.03;1.67;;;9.00;99.90;;;;;;5064260;28;20216;-63
2022/05/08 05:43:20;;;;;;;1.23;1.13;;;9.00;99.90;;;;;;5063061;28;20198;-63
2022/05/08 05:47:49;;;;;;;1.50;1.40;;;9.00;99.90;;;;;;5062066;28;20202;-63
2022/05/08 05:48:40;;;;;;;2.13;1.60;;;9.00;99.90;;;;;;5061858;28;20217;-63
2022/05/08 05:51:12;;;;;;;1.52;1.42;;;8.90;99.90;;;;;;5063803;28;20216;-63
2022/05/08 05:53:43;;;;;;;1.23;1.00;;;8.90;99.90;;;;;;5062423;28;20236;-63
2022/05/08 05:56:15;;;;;;;3.05;1.70;;;8.90;99.90;;;;;;5051581;28;20198;-63
2022/05/08 05:58:46;;;;;;;1.70;1.27;;;8.80;99.90;;;;;;5066544;28;20198;-64
2022/05/08 06:01:17;;;;;;;1.45;0.80;;;8.80;99.90;;;;;;5063148;28;20190;-63
2022/05/08 06:03:48;;;;;;;2.65;1.25;;;8.70;99.90;;;;;;5061800;28;20224;-63
2022/05/08 06:06:19;;;;;;;3.45;1.10;;;8.70;99.90;;;;;;5061419;28;20384;-63
2022/05/08 06:08:50;;;;;;;1.27;0.95;;;8.60;99.90;;;;;;5062212;28;20615;-62
2022/05/08 06:11:22;;;;;;;0.70;0.70;;;8.60;99.90;;;;;;5062187;28;20282;-62
2022/05/08 06:13:53;;;;;;;1.08;1.00;;;8.60;99.90;;;;;;5061212;28;20238;-62
2022/05/08 06:16:23;;;;;;;1.90;0.93;;;8.60;99.90;;;;;;5061783;28;20233;-62
2022/05/08 06:18:54;;;;;;;2.35;0.80;;;8.60;99.90;;;;;;5061833;28;20212;-62
2022/05/08 06:21:31;;;;;;;4.18;1.10;;;8.50;99.90;;;;;;5060831;28;20217;-64
2022/05/08 06:24:02;;;;;;;1.95;1.10;;;8.60;99.90;;;;;;5059334;28;20210;-64
2022/05/08 06:26:35;;;;;;;4.63;0.98;;;8.50;99.90;;;;;;5061753;28;20205;-62
2022/05/08 06:29:05;;;;;;;0.82;0.80;;;8.50;99.90;;;;;;5061838;28;20222;-62
2022/05/08 06:31:36;;;;;;;0.80;0.75;;;8.40;99.90;;;;;;5062649;28;20194;-64
2022/05/08 06:34:08;;;;;;;1.25;1.10;;;8.20;99.90;;;;;;5061363;28;20225;-64
2022/05/08 06:36:38;;;;;;;4.40;1.20;;;8.10;99.90;;;;;;5061556;28;20213;-63
2022/05/08 06:39:09;;;;;;;1.25;0.73;;;8.10;99.90;;;;;;5060945;28;20564;-63
2022/05/08 06:41:42;;;;;;;2.38;0.80;;;8.10;99.90;;;;;;5060809;28;20210;-64
2022/05/08 06:44:13;;;;;;;1.02;0.93;;;8.10;99.90;;;;;;5061477;28;20217;-63
2022/05/08 06:46:45;;;;;;;0.82;0.70;;;8.10;99.90;;;;;;5060620;28;20202;-63
2022/05/08 06:49:16;;;;;;;2.25;1.15;;;8.10;99.90;;;;;;5060639;28;20214;-63
2022/05/08 06:51:47;;;;;;;1.15;1.00;;;8.10;99.90;;;;;;5061361;28;20206;-64
2022/05/08 06:54:17;;;;;;;1.10;1.00;;;8.10;99.90;;;;;;5058150;28;20300;-64
2022/05/08 06:56:51;;;;;;;1.33;1.00;;;8.00;99.90;;;;;;5061826;28;20212;-64
2022/05/08 07:02:11;;;;;;;2.45;0.73;;;8.00;99.90;;;;;;5061262;28;20205;-63
2022/05/08 07:04:42;;;;;;;1.02;0.93;;;8.00;99.90;;;;;;5058184;28;20264;-63
2022/05/08 07:07:13;;;;;;;1.33;0.50;;;8.00;99.90;;;;;;5059328;28;20656;-63
2022/05/08 07:09:44;;;;;;;1.20;0.90;;;7.90;99.90;;;;;;5057570;28;20245;-63
2022/05/08 07:12:16;;;;;;;2.05;0.50;;;7.90;99.90;;;;;;5060638;28;20213;-64
2022/05/08 07:14:47;;;;;;;0.90;0.65;;;7.90;99.90;;;;;;5051273;28;20324;-63
2022/05/08 07:17:18;;;;;;;1.42;0.80;;;7.90;99.90;;;;;;5054765;28;20261;-64
2022/05/08 07:19:50;;;;;;;1.50;0.57;;;7.90;99.90;;;;;;5059889;28;20279;-63
2022/05/08 07:22:20;;;;;;;0.85;0.85;;;7.90;99.90;;;;;;5060018;28;20220;-63
2022/05/08 07:24:51;;;;;;;1.15;0.82;;;7.90;99.90;;;;;;5059955;28;20217;-63
2022/05/08 07:27:24;;;;;;;1.58;1.48;;;7.90;99.90;;;;;;5060928;28;20547;-64
2022/05/08 07:29:55;;;;;;;1.05;0.90;;;7.90;99.90;;;;;;5051807;28;20205;-64
2022/05/08 07:32:27;;;;;;;2.90;0.93;;;7.80;99.90;;;;;;5059770;28;20209;-63
2022/05/08 07:37:45;;;;;;;1.42;0.82;;;7.80;99.90;;;;;;5059414;28;20209;-64
2022/05/08 07:40:16;;;;;;;5.00;0.90;;;7.70;99.90;;;;;;5058523;28;20241;-64
2022/05/08 07:42:48;;;;;;;1.33;1.13;;;7.70;99.90;;;;;;5060879;28;20202;-64
2022/05/08 07:45:20;;;;;;;1.50;0.90;;;7.60;99.90;;;;;;5060456;28;20231;-65
2022/05/08 07:47:51;;;;;;;1.27;0.70;;;7.50;99.90;;;;;;5060254;28;20197;-62
2022/05/08 07:50:22;;;;;;;1.55;0.80;;;7.60;99.90;;;;;;5060116;28;20212;-62
2022/05/08 07:52:53;;;;;;;0.80;0.70;;;7.60;99.90;;;;;;5059989;28;20284;-64
2022/05/08 07:55:23;;;;;;;2.55;1.17;;;7.60;99.90;;;;;;5059855;28;20326;-64
2022/05/08 07:57:56;;;;;;;1.02;0.93;;;7.50;99.90;;;;;;5059941;28;20209;-62
2022/05/08 08:00:27;;;;;;;1.73;1.10;;;7.50;99.90;;;;;;5060647;28;20198;-62
2022/05/08 08:02:58;;;;;;;1.00;1.00;;;7.50;99.90;;;;;;5061103;28;20299;-63
2022/05/08 08:05:29;;;;;;;1.13;0.80;;;7.50;99.90;;;;;;5059735;28;20320;-63
2022/05/08 08:08:22;;;;;;;0.90;0.80;;;7.50;99.90;;;;;;5058045;28;20214;-62
2022/05/08 08:10:55;;;;;;;2.10;0.90;;;7.60;99.90;;;;;;5062258;28;20210;-62
2022/05/08 08:13:29;;;;;;;1.25;1.15;;;7.60;99.90;;;;;;5063570;28;20210;-64
2022/05/08 08:16:01;;;;;;;0.93;0.80;;;7.50;99.90;;;;;;5064111;28;20239;-62
2022/05/08 08:18:32;;;;;;;1.45;1.35;;;7.40;99.90;;;;;;5062877;28;20272;-64
2022/05/08 08:21:10;;;;;;;0.82;0.80;;;7.40;99.90;;;;;;5064234;28;20224;-63
2022/05/08 08:23:42;;;;;;;1.10;1.00;;;7.30;99.90;;;;;;5061494;28;20689;-64
2022/05/08 08:26:14;;;;;;;0.75;0.70;;;7.20;99.90;;;;;;5063782;28;20206;-64
2022/05/08 08:28:46;;;;;;;1.60;0.80;;;7.20;99.90;;;;;;5062140;28;20218;-63
2022/05/08 08:31:17;;;;;;;1.45;1.33;;;7.10;99.90;;;;;;5063458;28;20194;-64
2022/05/08 08:33:52;;;;;;;5.28;1.13;;;7.20;99.90;;;;;;5062308;28;20263;-64
2022/05/08 08:36:23;;;;;;;1.30;1.10;;;7.10;99.90;;;;;;5063367;28;20265;-64
2022/05/08 08:38:54;;;;;;;1.25;1.15;;;7.20;99.90;;;;;;5058383;28;20206;-63
2022/05/08 08:41:34;;;;;;;1.20;1.10;;;7.10;99.90;;;;;;5063203;28;20214;-63
2022/05/08 08:49:52;;;;;;;1.30;0.80;;;7.20;99.90;;;;;;5062506;28;20238;-63
2022/05/08 08:52:24;;;;;;;1.40;1.30;;;7.20;99.90;;;;;;5060242;28;20537;-64
2022/05/08 08:54:55;;;;;;;1.10;1.00;;;7.10;99.90;;;;;;5063415;28;20224;-62
2022/05/08 08:57:26;;;;;;;2.05;1.40;;;7.10;99.90;;;;;;5063630;28;20219;-62
2022/05/08 08:59:58;;;;;;;1.70;1.00;;;7.10;99.90;;;;;;5063032;28;20277;-63
2022/05/08 09:02:29;;;;;;;3.15;1.58;;;7.00;99.90;;;;;;5062051;28;20214;-63
2022/05/08 09:05:00;;;;;;;1.35;1.10;;;7.00;99.90;;;;;;5062926;28;20213;-63
2022/05/08 09:07:42;;;;;;;3.80;1.17;;;7.00;99.90;;;;;;5063046;28;20224;-63
2022/05/08 09:10:15;;;;;;;3.85;1.48;;;6.90;99.90;;;;;;5062664;28;20202;-62
2022/05/08 09:13:01;;;;;;;3.28;1.50;;;6.90;99.90;;;;;;5063151;28;20226;-62
2022/05/08 09:15:41;;;;;;;2.85;1.85;;;6.90;99.90;;;;;;5052247;28;20277;-63
2022/05/08 09:18:13;;;;;;;1.75;1.48;;;6.80;99.90;;;;;;5062731;28;20206;-62
2022/05/08 09:20:47;;;;;;;1.73;1.42;;;6.80;99.90;;;;;;5061515;28;20232;-62
2022/05/08 09:23:19;;;;;;;1.70;1.40;;;6.70;99.90;;;;;;5060377;28;20221;-63
2022/05/08 09:25:53;;;;;;;1.83;1.33;;;6.70;99.90;;;;;;5063336;28;20198;-62
2022/05/08 09:28:42;;;;;;;1.40;1.30;;;6.60;99.90;;;;;;5059824;28;20307;-62
2022/05/08 09:31:15;;;;;;;1.52;1.40;;;6.60;99.90;;;;;;5051989;28;20217;-62
2022/05/08 09:33:49;;;;;;;1.10;0.80;;;6.60;99.90;;;;;;5062615;28;20266;-63
2022/05/08 09:36:21;;;;;;;1.40;1.30;;;6.50;99.90;;;;;;5062678;28;20237;-62
2022/05/08 09:38:54;;;;;;;2.40;1.25;;;6.60;99.90;;;;;;5061696;28;20663;-63
2022/05/08 09:41:27;;;;;;;1.73;1.10;;;6.50;99.90;;;;;;5061960;28;20225;-63
2022/05/08 09:44:10;;;;;;;1.40;1.02;;;6.60;99.90;;;;;;5061967;28;20213;-62
2022/05/08 09:46:43;;;;;;;1.80;1.40;;;6.60;99.90;;;;;;5063255;28;20641;-63
2022/05/08 09:49:19;;;;;;;2.95;1.33;;;6.60;99.90;;;;;;5061877;28;20208;-63
2022/05/08 09:51:51;;;;;;;2.13;1.38;;;6.70;99.90;;;;;;5062801;28;20215;-63
2022/05/08 09:54:22;;;;;;;2.28;1.20;;;6.80;99.90;;;;;;5060197;28;20210;-63
2022/05/08 09:56:53;;;;;;;2.45;1.55;;;6.80;99.90;;;;;;5060647;28;20229;-62
2022/05/08 09:59:24;;;;;;;1.27;1.17;;;6.80;99.90;;;;;;5060868;28;20216;-63
2022/05/08 10:01:57;;;;;;;1.35;1.25;;;6.90;99.90;;;;;;5061494;28;20216;-63
2022/05/08 10:04:29;;;;;;;2.80;1.30;;;6.90;99.90;;;;;;5062158;28;20218;-62
2022/05/08 10:07:01;;;;;;;1.00;1.00;;;7.00;99.90;;;;;;5062476;28;20232;-63
2022/05/08 10:15:35;;;;;;;1.42;1.10;;;7.00;99.90;;;;;;5061626;28;20237;-63
2022/05/08 10:18:28;;;;;;;2.50;1.30;;;7.00;99.90;;;;;;5060778;28;20236;-62
2022/05/08 10:21:03;;;;;;;1.45;1.00;;;7.00;99.90;;;;;;5060415;28;20213;-64
2022/05/08 10:23:39;;;;;;;1.88;1.10;;;7.00;99.90;;;;;;5057014;28;20297;-63
2022/05/08 10:26:17;;;;;;;2.10;1.27;;;7.00;99.90;;;;;;5062253;28;20193;-63
2022/05/08 10:29:13;;;;;;;1.98;1.45;;;7.00;99.90;;;;;;5060694;28;20206;-63
2022/05/08 10:31:46;;;;;;;3.13;1.60;;;7.00;99.90;;;;;;5055812;28;20258;-63
2022/05/08 10:34:31;;;;;;;2.28;1.45;;;7.00;99.90;;;;;;5058477;28;20270;-62
2022/05/08 10:37:29;;;;;;;1.90;1.20;;;7.00;99.90;;;;;;5059719;28;20236;-63
2022/05/08 10:40:00;;;;;;;1.50;1.23;;;7.00;99.90;;;;;;5057734;28;20201;-62
2022/05/08 10:42:45;;;;;;;2.38;1.75;;;7.00;99.90;;;;;;5061863;28;20210;-63
2022/05/08 10:45:48;;;;;;;3.38;1.30;;;7.00;99.90;;;;;;5060713;28;20288;-63
2022/05/08 10:48:20;;;;;;;3.22;1.33;;;7.00;99.90;;;;;;4990111;28;20307;-63
2022/05/08 10:50:56;;;;;;;3.63;1.30;;;6.90;99.90;;;;;;4999743;28;20218;-63
2022/05/08 10:53:29;;;;;;;2.58;1.10;;;7.00;99.90;;;;;;4998492;28;20211;-63
2022/05/08 10:56:05;;;;;;;2.03;1.35;;;7.00;99.90;;;;;;4999856;28;20246;-62
2022/05/08 10:58:39;;;;;;;2.97;1.65;;;6.90;99.90;;;;;;4998232;28;20230;-62
2022/05/08 11:01:11;;;;;;;2.58;1.25;;;6.80;99.90;;;;;;4999546;28;20251;-63
2022/05/08 11:03:42;;;;;;;1.20;1.10;;;6.80;99.90;;;;;;4998106;28;20215;-63
2022/05/08 11:06:22;;;;;;;1.10;1.00;;;6.90;99.90;;;;;;4999624;28;20207;-63
2022/05/08 11:09:01;;;;;;;2.78;1.20;;;6.80;99.90;;;;;;4993368;28;20200;-63
2022/05/08 11:11:32;;;;;;;3.05;1.50;;;6.80;99.90;;;;;;4999859;28;20215;-62
2022/05/08 11:14:03;;;;;;;1.75;1.25;;;6.80;99.90;;;;;;4998739;28;21321;-63
2022/05/08 11:16:38;;;;;;;1.92;1.10;;;6.80;99.90;;;;;;4999473;28;20267;-63
2022/05/08 11:19:09;;;;;;;2.55;1.45;;;6.90;99.90;;;;;;5028523;28;20275;-62
2022/05/08 11:21:42;;;;;;;2.80;2.05;;;6.90;99.90;;;;;;5060375;28;20198;-63
2022/05/08 11:24:24;;;;;;;1.58;1.48;;;6.90;99.90;;;;;;5060677;28;20213;-63
2022/05/08 11:26:56;;;;;;;1.60;1.50;;;7.00;99.90;;;;;;5054943;28;20209;-63
2022/05/08 11:29:26;;;;;;;1.30;0.90;;;6.90;99.90;;;;;;5059795;28;20221;-62
2022/05/08 11:38:05;;;;;;;2.25;1.50;;;7.00;99.90;;;;;;5060364;28;20225;-63
2022/05/08 11:40:36;;;;;;;2.35;1.45;;;7.10;99.90;;;;;;5060236;28;20241;-62
2022/05/08 11:43:07;;;;;;;3.55;1.20;;;7.10;99.90;;;;;;5061113;28;20194;-63
2022/05/08 11:45:38;;;;;;;2.10;1.35;;;7.10;99.90;;;;;;5062302;28;20201;-62
2022/05/08 11:48:10;;;;;;;4.00;2.17;;;7.10;99.90;;;;;;5065022;28;20202;-63
2022/05/08 11:50:53;;;;;;;4.43;1.50;;;7.10;99.90;;;;;;5064599;28;20657;-62
2022/05/08 11:53:26;;;;;;;4.47;1.42;;;7.10;99.90;;;;;;5062899;28;20206;-63
2022/05/08 11:55:58;;;;;;;1.70;1.30;;;7.20;99.90;;;;;;5066253;28;20241;-62
2022/05/08 11:58:33;;;;;;;2.38;1.08;;;7.20;99.90;;;;;;5064005;28;20209;-63
2022/05/08 12:01:03;;;;;;;1.75;1.10;;;7.20;99.90;;;;;;5065125;28;20208;-63
2022/05/08 12:03:34;;;;;;;2.55;1.02;;;7.20;99.90;;;;;;5065241;28;20212;-63
2022/05/08 12:06:12;;;;;;;2.40;2.20;;;7.10;99.90;;;;;;5064444;28;20210;-63
2022/05/08 12:08:44;;;;;;;2.47;1.55;;;7.10;99.90;;;;;;5055936;28;20206;-63
2022/05/08 12:11:33;;;;;;;1.50;1.25;;;6.90;99.90;;;;;;5065048;28;20201;-63
2022/05/08 12:14:05;;;;;;;2.45;1.73;;;6.80;99.90;;;;;;5064714;28;20202;-63
2022/05/08 12:16:37;;;;;;;2.25;1.90;;;6.70;99.90;;;;;;5064664;28;20233;-63
2022/05/08 12:19:18;;;;;;;2.60;1.70;;;6.60;99.90;;;;;;5066031;28;20195;-63
2022/05/08 12:21:50;;;;;;;2.45;1.48;;;6.60;99.90;;;;;;5064611;28;20198;-62
2022/05/08 12:24:23;;;;;;;3.28;1.42;;;6.60;99.90;;;;;;5064147;28;20212;-63
2022/05/08 12:26:54;;;;;;;2.05;1.20;;;6.60;99.90;;;;;;5065262;28;20210;-62
2022/05/08 12:29:25;;;;;;;2.20;1.45;;;6.50;99.90;;;;;;5062508;28;20202;-63
2022/05/08 12:31:56;;;;;;;2.72;2.53;;;6.40;99.90;;;;;;5063608;28;20202;-62
2022/05/08 12:34:27;;;;;;;1.77;1.30;;;6.30;99.90;;;;;;5064664;28;20225;-63
2022/05/08 12:36:57;;;;;;;2.55;1.73;;;6.30;99.90;;;;;;5064272;28;20229;-62
2022/05/08 12:39:30;;;;;;;1.40;1.30;;;6.20;99.90;;;;;;5062671;28;20210;-63
2022/05/08 12:42:01;;;;;;;2.13;1.60;;;6.10;99.90;;;;;;5063651;28;20217;-63
2022/05/08 12:44:32;;;;;;;2.25;1.23;;;6.00;99.90;;;;;;5061897;28;20533;-62
2022/05/08 12:47:03;;;;;;;1.58;1.30;;;6.00;99.90;;;;;;5063462;28;20212;-60
2022/05/08 12:49:33;;;;;;;2.78;1.40;;;5.90;99.90;;;;;;5063598;28;20206;-62
2022/05/08 12:52:06;;;;;;;2.05;1.25;;;5.90;99.90;;;;;;5064048;28;20206;-62
2022/05/08 12:54:38;;;;;;;1.63;1.27;;;5.90;99.90;;;;;;5062988;28;21003;-62
2022/05/08 12:57:11;;;;;;;2.10;1.40;;;5.80;99.90;;;;;;5061619;28;20249;-62
2022/05/08 12:59:43;;;;;;;1.40;1.30;;;5.80;99.90;;;;;;5063136;28;20615;-62
2022/05/08 13:02:14;;;;;;;2.85;1.45;;;5.80;99.90;;;;;;5065061;28;20228;-62
2022/05/08 13:04:46;;;;;;;1.95;1.50;;;5.90;99.90;;;;;;5063963;28;20295;-62
2022/05/08 13:07:17;;;;;;;1.52;1.10;;;5.90;99.90;;;;;;5064681;28;20198;-62
2022/05/08 13:09:50;;;;;;;2.65;1.73;;;5.90;99.90;;;;;;5062915;28;20331;-62
2022/05/08 13:12:21;;;;;;;1.55;1.45;;;5.90;99.90;;;;;;5064172;28;20202;-61
2022/05/08 13:14:52;;;;;;;2.20;1.20;;;6.00;99.90;;;;;;5063524;28;20206;-62
2022/05/08 13:17:22;;;;;;;2.15;1.30;;;6.10;99.90;;;;;;5064526;28;20229;-62
2022/05/08 13:19:53;;;;;;;3.45;1.40;;;6.10;99.90;;;;;;5064429;28;20198;-62
2022/05/08 13:22:24;;;;;;;5.60;1.50;;;6.10;99.90;;;;;;5063094;28;20202;-63
2022/05/08 13:25:02;;;;;;;1.70;1.52;;;6.10;99.90;;;;;;5062486;28;20221;-63
2022/05/08 13:27:34;;;;;;;2.20;2.00;;;6.20;99.90;;;;;;5063969;28;20236;-63
2022/05/08 13:30:05;;;;;;;2.40;1.30;;;6.30;99.90;;;;;;5057585;28;20211;-63
2022/05/08 13:32:37;;;;;;;1.70;1.60;;;6.50;99.90;;;;;;5061649;28;20205;-64
2022/05/08 13:35:09;;;;;;;3.70;1.90;;;6.60;99.90;;;;;;5062378;28;20194;-63
2022/05/08 13:37:40;;;;;;;1.13;1.02;;;6.60;99.90;;;;;;5063492;28;20272;-63
2022/05/08 13:40:13;;;;;;;1.40;1.30;;;6.70;99.90;;;;;;5062784;28;20198;-63
2022/05/08 13:42:44;;;;;;;1.52;1.40;;;6.80;99.90;;;;;;5062635;28;20202;-63
2022/05/08 13:45:15;;;;;;;3.15;1.73;;;6.70;99.90;;;;;;5063417;28;20198;-63
2022/05/08 13:47:45;;;;;;;2.17;1.45;;;6.70;99.90;;;;;;5064179;28;20194;-63
2022/05/08 13:50:16;;;;;;;1.65;1.55;;;6.80;99.90;;;;;;5060917;28;20216;-62
2022/05/08 13:52:47;;;;;;;2.35;1.65;;;6.90;99.90;;;;;;5061938;28;20245;-63
2022/05/08 13:55:19;;;;;;;3.25;1.85;;;7.10;99.90;;;;;;5061673;28;20210;-63
2022/05/08 13:57:54;;;;;;;2.00;1.80;;;7.10;99.90;;;;;;5062924;28;20226;-63